Time;durP1;ratioP1;P1;durP2;ratioP2;P2;SDS_P1;SDS_P2;PMS_P1;PMS_P2;Temp;Humidity;BMP_temperature;BMP_pressure;BME280_temperature;BME280_humidity;BME280_pressure;Samples;Min_cycle;Max_cycle;Signal;HPM_P1;HPM_P2
2021/09/26 00:01:21;;;;;;;15.63;9.33;;;12.50;99.90;;;;;;4124615;28;20108;-62
2021/09/26 00:03:24;;;;;;;14.37;9.13;;;12.50;99.90;;;;;;4123570;28;20108;-65
2021/09/26 00:05:25;;;;;;;14.37;9.23;;;12.50;99.90;;;;;;4124904;28;20032;-62
2021/09/26 00:07:26;;;;;;;12.90;8.70;;;12.50;99.90;;;;;;4122450;28;20046;-61
2021/09/26 00:09:28;;;;;;;13.90;8.33;;;12.40;99.90;;;;;;4124826;28;20096;-63
2021/09/26 00:11:30;;;;;;;17.10;9.83;;;12.50;99.90;;;;;;4123554;28;20050;-64
2021/09/26 00:13:35;;;;;;;17.13;9.77;;;12.50;99.90;;;;;;4125253;28;20030;-59
2021/09/26 00:15:36;;;;;;;17.43;9.93;;;12.50;99.90;;;;;;4123541;28;20478;-61
2021/09/26 00:17:38;;;;;;;17.63;10.60;;;12.50;99.90;;;;;;4125025;28;20099;-61
2021/09/26 00:19:39;;;;;;;16.23;9.97;;;12.50;99.90;;;;;;4123936;28;20046;-61
2021/09/26 00:21:40;;;;;;;18.10;10.60;;;12.50;99.90;;;;;;4125019;28;20085;-66
2021/09/26 00:23:42;;;;;;;17.43;9.53;;;12.60;99.90;;;;;;4123583;28;20092;-60
2021/09/26 00:25:43;;;;;;;16.77;9.87;;;12.60;99.90;;;;;;4124701;28;20042;-62
2021/09/26 00:27:44;;;;;;;16.13;9.63;;;12.70;99.90;;;;;;4124063;28;20030;-61
2021/09/26 00:29:46;;;;;;;17.67;10.70;;;12.60;99.90;;;;;;4124103;28;20420;-63
2021/09/26 00:31:47;;;;;;;16.73;9.37;;;12.70;99.90;;;;;;4113876;28;20097;-64
2021/09/26 00:33:48;;;;;;;15.87;8.70;;;12.70;99.90;;;;;;4121866;28;20089;-68
2021/09/26 00:35:50;;;;;;;14.97;9.17;;;12.70;99.90;;;;;;4124591;28;20027;-59
2021/09/26 00:37:51;;;;;;;14.07;9.37;;;12.70;99.90;;;;;;4123771;28;21007;-60
2021/09/26 00:39:52;;;;;;;15.40;9.47;;;12.70;99.90;;;;;;4128080;28;20097;-64
2021/09/26 00:41:53;;;;;;;17.53;10.00;;;12.70;99.90;;;;;;4126533;28;20042;-63
2021/09/26 00:43:54;;;;;;;17.53;9.03;;;12.70;99.90;;;;;;4128100;28;20900;-60
2021/09/26 00:45:57;;;;;;;18.07;10.07;;;12.60;99.90;;;;;;4126540;28;20045;-61
2021/09/26 00:47:58;;;;;;;15.20;9.70;;;12.60;99.90;;;;;;4127593;28;20065;-61
2021/09/26 00:50:00;;;;;;;13.90;9.43;;;12.60;99.90;;;;;;4127533;28;20034;-61
2021/09/26 00:52:01;;;;;;;19.40;9.70;;;12.60;99.90;;;;;;4127955;28;20050;-64
2021/09/26 00:54:02;;;;;;;17.13;9.97;;;12.60;99.90;;;;;;4124918;28;20837;-60
2021/09/26 00:56:04;;;;;;;20.13;9.47;;;12.60;99.90;;;;;;4111188;28;20559;-60
2021/09/26 00:58:05;;;;;;;16.93;10.23;;;12.60;99.90;;;;;;4110831;28;20487;-59
2021/09/26 01:00:07;;;;;;;17.77;9.50;;;12.50;99.90;;;;;;4111227;28;20102;-62
2021/09/26 01:02:08;;;;;;;17.70;10.33;;;12.50;99.90;;;;;;4111212;28;20018;-65
2021/09/26 01:04:10;;;;;;;16.13;10.37;;;12.50;99.90;;;;;;4108939;28;20535;-61
2021/09/26 01:06:35;;;;;;;20.17;10.30;;;12.50;99.90;;;;;;4111589;28;21052;-60
2021/09/26 01:08:53;;;;;;;20.40;11.33;;;12.50;99.90;;;;;;4110176;28;20093;-61
2021/09/26 01:11:00;;;;;;;19.50;11.10;;;12.40;99.90;;;;;;4118109;28;20421;-60
2021/09/26 01:13:16;;;;;;;21.43;11.43;;;12.40;99.90;;;;;;4126371;28;20034;-61
2021/09/26 01:15:42;;;;;;;22.13;11.90;;;12.40;99.90;;;;;;4126754;28;20104;-61
2021/09/26 01:17:48;;;;;;;22.00;12.93;;;12.30;99.90;;;;;;4126629;28;20438;-60
2021/09/26 01:20:27;;;;;;;22.53;11.93;;;12.30;99.90;;;;;;4126986;28;20080;-61
2021/09/26 01:22:52;;;;;;;20.80;11.23;;;12.30;99.90;;;;;;4125478;28;20046;-62
2021/09/26 01:25:17;;;;;;;27.77;13.53;;;12.20;99.90;;;;;;4125872;28;20868;-62
2021/09/26 01:27:35;;;;;;;19.93;12.03;;;12.20;99.90;;;;;;4127285;28;20058;-61
2021/09/26 01:30:15;;;;;;;23.40;12.13;;;12.20;99.90;;;;;;4126397;28;20491;-65
2021/09/26 01:32:20;;;;;;;19.83;12.03;;;12.20;99.90;;;;;;4092113;29;20106;-63
2021/09/26 01:34:27;;;;;;;19.60;11.67;;;12.20;99.90;;;;;;4111505;28;20034;-66
2021/09/26 01:36:41;;;;;;;23.53;12.40;;;12.20;99.90;;;;;;4126971;28;20034;-61
2021/09/26 01:38:48;;;;;;;19.43;12.57;;;12.20;99.90;;;;;;4126098;28;20097;-60
2021/09/26 01:40:58;;;;;;;20.67;13.07;;;12.20;99.90;;;;;;4127129;28;20046;-63
2021/09/26 01:43:07;;;;;;;17.35;11.45;;;12.20;99.90;;;;;;4126156;28;20030;-62
2021/09/26 01:45:16;;;;;;;19.90;12.23;;;12.20;99.90;;;;;;4126587;28;20030;-60
2021/09/26 01:47:22;;;;;;;24.63;13.13;;;12.30;99.90;;;;;;4125552;28;20483;-58
2021/09/26 01:49:28;;;;;;;19.97;11.67;;;12.30;99.90;;;;;;4126510;28;20046;-59
2021/09/26 01:51:38;;;;;;;22.40;12.13;;;12.30;99.90;;;;;;4125046;28;20050;-66
2021/09/26 01:53:43;;;;;;;21.48;12.30;;;12.30;99.90;;;;;;4126609;28;20030;-62
2021/09/26 01:55:47;;;;;;;25.33;13.33;;;12.30;99.90;;;;;;4125650;28;20065;-61
2021/09/26 01:57:49;;;;;;;23.03;12.57;;;12.20;99.90;;;;;;4126368;28;20042;-67
2021/09/26 01:59:55;;;;;;;25.33;12.97;;;12.20;99.90;;;;;;4125639;28;20082;-58
2021/09/26 02:01:58;;;;;;;24.33;13.20;;;12.20;99.90;;;;;;4126611;28;20030;-61
2021/09/26 02:04:01;;;;;;;20.17;12.83;;;12.20;99.90;;;;;;4125008;28;20461;-62
2021/09/26 02:06:04;;;;;;;18.23;12.23;;;12.20;99.90;;;;;;4126781;28;20426;-59
2021/09/26 02:08:06;;;;;;;21.93;12.83;;;12.20;99.90;;;;;;4123503;28;20038;-59
2021/09/26 02:10:08;;;;;;;19.47;12.70;;;12.20;99.90;;;;;;4126758;28;20073;-59
2021/09/26 02:12:12;;;;;;;25.63;14.03;;;12.20;99.90;;;;;;4125213;28;20030;-60
2021/09/26 02:14:14;;;;;;;21.23;12.17;;;12.20;99.90;;;;;;4126482;28;20030;-60
2021/09/26 02:16:16;;;;;;;26.47;13.43;;;12.20;99.90;;;;;;4124523;28;20463;-60
2021/09/26 02:18:19;;;;;;;21.13;13.00;;;12.10;99.90;;;;;;4125858;28;20734;-61
2021/09/26 02:20:21;;;;;;;20.03;13.10;;;12.10;99.90;;;;;;4125785;28;20038;-61
2021/09/26 02:22:22;;;;;;;20.37;13.30;;;12.10;99.90;;;;;;4125280;28;20041;-61
2021/09/26 02:24:23;;;;;;;19.47;11.70;;;12.10;99.90;;;;;;4126167;28;21035;-62
2021/09/26 02:26:26;;;;;;;20.83;13.57;;;12.20;99.90;;;;;;4124971;28;20085;-63
2021/09/26 02:28:27;;;;;;;21.40;12.37;;;12.20;99.90;;;;;;4125627;28;20035;-64
2021/09/26 02:30:28;;;;;;;18.97;12.50;;;12.20;99.90;;;;;;4124859;28;20104;-63
2021/09/26 02:32:29;;;;;;;20.87;12.90;;;12.20;99.90;;;;;;4126526;28;20085;-65
2021/09/26 02:34:31;;;;;;;20.47;11.93;;;12.20;99.90;;;;;;4124883;28;20092;-62
2021/09/26 02:36:32;;;;;;;20.13;11.83;;;12.20;99.90;;;;;;4126127;28;20146;-60
2021/09/26 02:38:35;;;;;;;22.10;12.77;;;12.20;99.90;;;;;;4125025;28;20088;-63
2021/09/26 02:40:36;;;;;;;23.27;13.33;;;12.20;99.90;;;;;;4125709;28;20815;-62
2021/09/26 02:42:56;;;;;;;20.47;12.83;;;12.20;99.90;;;;;;4124697;28;20065;-61
2021/09/26 02:45:10;;;;;;;21.37;12.80;;;12.20;99.90;;;;;;4125986;28;20104;-62
2021/09/26 02:47:17;;;;;;;23.93;12.13;;;12.20;99.90;;;;;;4124645;28;20026;-61
2021/09/26 02:49:19;;;;;;;19.93;12.10;;;12.10;99.90;;;;;;4126096;28;20046;-61
2021/09/26 02:51:21;;;;;;;21.17;12.70;;;12.20;99.90;;;;;;4125138;28;20554;-62
2021/09/26 02:53:25;;;;;;;22.67;13.43;;;12.10;99.90;;;;;;4125996;28;20962;-67
2021/09/26 02:55:27;;;;;;;22.60;12.00;;;12.10;99.90;;;;;;4123841;28;20046;-66
2021/09/26 02:57:28;;;;;;;22.33;12.83;;;12.10;99.90;;;;;;4125355;28;20486;-63
2021/09/26 02:59:30;;;;;;;20.50;12.90;;;12.10;99.90;;;;;;4124767;28;20085;-66
2021/09/26 03:01:31;;;;;;;18.00;11.77;;;12.10;99.90;;;;;;4125140;28;20735;-66
2021/09/26 03:03:33;;;;;;;22.17;12.57;;;12.10;99.90;;;;;;4124681;28;20105;-66
2021/09/26 03:05:36;;;;;;;21.43;12.57;;;12.10;99.90;;;;;;4125358;28;20113;-58
2021/09/26 03:07:37;;;;;;;18.67;11.57;;;12.00;99.90;;;;;;4125000;28;20537;-62
2021/09/26 03:09:38;;;;;;;18.27;11.33;;;12.00;99.90;;;;;;4124344;28;20438;-65
2021/09/26 03:11:39;;;;;;;19.63;11.77;;;12.00;99.90;;;;;;4125493;28;20081;-63
2021/09/26 03:13:40;;;;;;;17.17;11.53;;;12.00;99.90;;;;;;4124441;28;20035;-60
2021/09/26 03:15:42;;;;;;;21.33;12.50;;;12.00;99.90;;;;;;4125266;28;20438;-61
2021/09/26 03:17:43;;;;;;;18.37;11.67;;;12.00;99.90;;;;;;4122638;28;20550;-63
2021/09/26 03:19:44;;;;;;;20.70;11.63;;;12.00;99.90;;;;;;4125354;28;20120;-64
2021/09/26 03:21:45;;;;;;;17.60;10.53;;;12.00;99.90;;;;;;4124409;28;20076;-61
2021/09/26 03:23:46;;;;;;;19.90;12.10;;;12.00;99.90;;;;;;4125827;28;20526;-61
2021/09/26 03:25:48;;;;;;;15.63;10.23;;;12.00;99.90;;;;;;4124399;28;20538;-61
2021/09/26 03:27:49;;;;;;;17.03;10.83;;;12.00;99.90;;;;;;4125560;28;20057;-65
2021/09/26 03:29:51;;;;;;;19.20;12.27;;;12.00;99.90;;;;;;4123775;28;20532;-62
2021/09/26 03:31:52;;;;;;;18.17;10.80;;;12.00;99.90;;;;;;4125119;28;20042;-62
2021/09/26 03:33:54;;;;;;;19.97;11.50;;;12.00;99.90;;;;;;4123617;28;20076;-61
2021/09/26 03:35:56;;;;;;;18.60;10.30;;;11.90;99.90;;;;;;4124511;28;20042;-60
2021/09/26 03:37:57;;;;;;;14.97;10.20;;;11.90;99.90;;;;;;4124618;28;20081;-60
2021/09/26 03:39:58;;;;;;;16.23;10.97;;;11.80;99.90;;;;;;4124174;28;20077;-63
2021/09/26 03:41:59;;;;;;;15.17;9.37;;;11.80;99.90;;;;;;4125187;28;20085;-62
2021/09/26 03:44:00;;;;;;;23.93;11.00;;;11.80;99.90;;;;;;4124281;28;20034;-61
2021/09/26 03:46:01;;;;;;;17.20;10.03;;;11.80;99.90;;;;;;4125314;28;20092;-61
2021/09/26 03:48:03;;;;;;;17.43;10.00;;;11.80;99.90;;;;;;4123676;28;20065;-64
2021/09/26 03:50:06;;;;;;;13.50;9.90;;;11.80;99.90;;;;;;4124881;28;20054;-63
2021/09/26 03:52:07;;;;;;;15.90;10.43;;;11.80;99.90;;;;;;4123701;28;20042;-62
2021/09/26 03:54:08;;;;;;;17.73;10.57;;;11.80;99.90;;;;;;4125128;28;20030;-60
2021/09/26 03:56:10;;;;;;;19.23;11.03;;;11.80;99.90;;;;;;4124182;28;20486;-61
2021/09/26 03:58:11;;;;;;;17.73;11.17;;;11.80;99.90;;;;;;4124619;28;20034;-60
2021/09/26 04:00:15;;;;;;;17.83;10.30;;;11.80;99.90;;;;;;4123197;28;20038;-62
2021/09/26 04:02:16;;;;;;;19.17;10.57;;;11.70;99.90;;;;;;4124457;28;20549;-61
2021/09/26 04:04:18;;;;;;;16.53;10.20;;;11.60;99.90;;;;;;4123774;28;20066;-63
2021/09/26 04:06:19;;;;;;;15.83;9.60;;;11.60;99.90;;;;;;4124165;28;20065;-61
2021/09/26 04:08:20;;;;;;;19.40;10.63;;;11.60;99.90;;;;;;4123566;28;20030;-65
2021/09/26 04:10:21;;;;;;;21.27;10.90;;;11.60;99.90;;;;;;4123400;28;20054;-58
2021/09/26 04:12:22;;;;;;;19.50;12.43;;;11.50;99.90;;;;;;4125014;28;20031;-65
2021/09/26 04:14:24;;;;;;;21.40;12.30;;;11.50;99.90;;;;;;4126217;28;20034;-61
2021/09/26 04:16:26;;;;;;;21.20;12.93;;;11.40;99.90;;;;;;4128248;28;20442;-65
2021/09/26 04:18:27;;;;;;;21.10;13.17;;;11.40;99.90;;;;;;4126760;28;20042;-63
2021/09/26 04:20:28;;;;;;;21.20;12.07;;;11.30;99.90;;;;;;4128261;28;20112;-64
2021/09/26 04:22:29;;;;;;;26.37;13.20;;;11.30;99.90;;;;;;4127231;28;20089;-61
2021/09/26 04:24:30;;;;;;;31.07;14.30;;;11.30;99.90;;;;;;4128024;28;20080;-60
2021/09/26 04:26:31;;;;;;;24.33;13.60;;;11.30;99.90;;;;;;4126289;28;20050;-62
2021/09/26 04:28:32;;;;;;;25.10;13.50;;;11.30;99.90;;;;;;4127942;28;20030;-61
2021/09/26 04:30:34;;;;;;;25.23;13.13;;;11.30;99.90;;;;;;4127068;28;20046;-60
2021/09/26 04:32:35;;;;;;;25.10;12.77;;;11.30;99.90;;;;;;4128168;28;20042;-66
2021/09/26 04:34:37;;;;;;;24.27;13.30;;;11.30;99.90;;;;;;4126600;28;20031;-65
2021/09/26 04:36:38;;;;;;;24.00;14.03;;;11.30;99.90;;;;;;4127338;28;20541;-61
2021/09/26 04:38:39;;;;;;;21.30;12.63;;;11.30;99.90;;;;;;4127059;28;20426;-64
2021/09/26 04:40:41;;;;;;;26.70;14.23;;;11.30;99.90;;;;;;4127014;28;20085;-65
2021/09/26 04:42:42;;;;;;;21.73;13.77;;;11.30;99.90;;;;;;4127314;28;20026;-61
2021/09/26 04:44:44;;;;;;;26.17;13.93;;;11.40;99.90;;;;;;4126788;28;20034;-61
2021/09/26 04:46:45;;;;;;;22.33;12.57;;;11.50;99.90;;;;;;4127675;28;20153;-60
2021/09/26 04:48:46;;;;;;;27.40;13.67;;;11.70;99.90;;;;;;4126416;28;20034;-60
2021/09/26 04:50:47;;;;;;;21.33;13.23;;;12.00;99.90;;;;;;4127846;28;20034;-60
2021/09/26 04:52:48;;;;;;;26.27;12.27;;;12.20;99.90;;;;;;4126758;28;20038;-61
2021/09/26 04:54:49;;;;;;;21.20;12.87;;;12.30;99.90;;;;;;4127681;28;20026;-63
2021/09/26 04:56:52;;;;;;;17.43;11.17;;;12.30;99.90;;;;;;4126255;28;20434;-65
2021/09/26 04:58:53;;;;;;;18.03;11.67;;;12.40;99.90;;;;;;4127830;28;20034;-65
2021/09/26 05:00:55;;;;;;;21.37;10.80;;;12.40;99.90;;;;;;4126453;28;20106;-63
2021/09/26 05:02:56;;;;;;;19.70;11.20;;;12.40;99.90;;;;;;4127382;28;20043;-61
2021/09/26 05:04:58;;;;;;;20.47;13.00;;;12.30;99.90;;;;;;4126461;28;20042;-63
2021/09/26 05:06:59;;;;;;;18.17;10.67;;;12.20;99.90;;;;;;4127355;28;20815;-61
2021/09/26 05:09:00;;;;;;;19.83;11.40;;;12.10;99.90;;;;;;4126128;28;20042;-61
2021/09/26 05:11:01;;;;;;;20.83;10.33;;;12.00;99.90;;;;;;4126853;28;20046;-61
2021/09/26 05:13:03;;;;;;;16.20;10.10;;;11.90;99.90;;;;;;4126681;28;20034;-61
2021/09/26 05:15:05;;;;;;;14.37;9.60;;;12.00;99.90;;;;;;4126147;28;20034;-60
2021/09/26 05:17:06;;;;;;;17.77;10.80;;;12.10;99.90;;;;;;4127049;28;20039;-60
2021/09/26 05:19:08;;;;;;;17.50;10.37;;;12.20;99.90;;;;;;4126291;28;20046;-62
2021/09/26 05:21:09;;;;;;;20.67;10.70;;;12.40;99.90;;;;;;4127966;28;20034;-60
2021/09/26 05:23:11;;;;;;;23.60;13.13;;;12.50;99.90;;;;;;4125532;28;20039;-60
2021/09/26 05:25:12;;;;;;;19.27;11.00;;;12.70;99.90;;;;;;4125844;28;20446;-61
2021/09/26 05:27:14;;;;;;;20.60;13.53;;;13.10;99.90;;;;;;4125645;28;20042;-64
2021/09/26 05:29:15;;;;;;;22.77;13.13;;;13.40;99.90;;;;;;4126854;28;20951;-60
2021/09/26 05:31:16;;;;;;;18.17;11.60;;;13.40;99.90;;;;;;4124376;28;20066;-61
2021/09/26 05:33:17;;;;;;;22.40;12.77;;;13.50;99.90;;;;;;4125795;28;20038;-62
2021/09/26 05:35:18;;;;;;;21.63;12.03;;;13.50;99.90;;;;;;4125661;28;20093;-61
2021/09/26 05:37:20;;;;;;;23.13;12.80;;;13.40;99.90;;;;;;4126951;28;20732;-61
2021/09/26 05:39:21;;;;;;;21.70;12.23;;;13.40;99.90;;;;;;4125792;28;20549;-60
2021/09/26 05:41:23;;;;;;;21.67;11.63;;;13.60;99.90;;;;;;4126045;28;20450;-61
2021/09/26 05:43:24;;;;;;;18.83;11.63;;;13.70;99.90;;;;;;4126337;28;20034;-64
2021/09/26 05:45:25;;;;;;;22.77;13.73;;;14.00;99.90;;;;;;4126073;28;20479;-65
2021/09/26 05:47:26;;;;;;;22.23;12.40;;;14.60;99.90;;;;;;4126085;28;20042;-62
2021/09/26 05:49:27;;;;;;;17.95;12.05;;;15.10;99.90;;;;;;4125463;28;20046;-63
2021/09/26 05:51:28;;;;;;;17.88;11.57;;;15.60;99.90;;;;;;4127142;28;20046;-61
2021/09/26 05:53:29;;;;;;;22.90;12.82;;;16.00;99.90;;;;;;4125562;28;20023;-62
2021/09/26 05:55:30;;;;;;;18.35;11.48;;;16.60;99.90;;;;;;4126319;28;20042;-61
2021/09/26 05:57:32;;;;;;;18.02;11.02;;;17.10;99.90;;;;;;4125878;28;20503;-61
2021/09/26 05:59:38;;;;;;;24.20;12.73;;;17.50;99.90;;;;;;4126300;28;20100;-61
2021/09/26 06:01:39;;;;;;;22.08;12.68;;;17.90;99.90;;;;;;4125444;28;20076;-62
2021/09/26 06:03:41;;;;;;;19.08;11.98;;;17.90;99.90;;;;;;4126189;28;20050;-61
2021/09/26 06:05:43;;;;;;;17.30;11.52;;;17.80;99.90;;;;;;4125059;28;20042;-63
2021/09/26 06:07:44;;;;;;;17.95;12.02;;;17.90;99.90;;;;;;4125914;28;20100;-60
2021/09/26 06:09:47;;;;;;;23.77;15.82;;;18.00;99.90;;;;;;4125079;28;20502;-66
2021/09/26 06:11:48;;;;;;;24.30;15.57;;;18.10;99.90;;;;;;4126113;28;20097;-61
2021/09/26 06:13:49;;;;;;;20.73;14.23;;;17.70;99.90;;;;;;4124888;28;20105;-61
2021/09/26 06:15:51;;;;;;;14.68;11.00;;;17.50;99.90;;;;;;4125411;28;20433;-61
2021/09/26 06:17:52;;;;;;;19.05;11.82;;;17.30;99.90;;;;;;4125530;28;20553;-63
2021/09/26 06:19:53;;;;;;;18.50;11.57;;;17.20;99.90;;;;;;4123668;28;20141;-61
2021/09/26 06:21:54;;;;;;;19.15;11.60;;;17.20;99.90;;;;;;4125946;28;20039;-63
2021/09/26 06:23:55;;;;;;;24.13;11.20;;;17.20;99.90;;;;;;4124231;28;20050;-61
2021/09/26 06:25:58;;;;;;;16.90;11.38;;;17.30;99.90;;;;;;4126218;28;20085;-61
2021/09/26 06:27:59;;;;;;;20.67;12.05;;;17.50;99.90;;;;;;4124992;28;20479;-60
2021/09/26 06:30:02;;;;;;;19.55;11.30;;;17.80;99.90;;;;;;4125856;28;20676;-66
2021/09/26 06:32:03;;;;;;;19.30;10.52;;;18.10;99.90;;;;;;4124475;28;20038;-62
2021/09/26 06:34:05;;;;;;;16.67;10.82;;;18.20;99.90;;;;;;4125299;28;20050;-63
2021/09/26 06:36:06;;;;;;;18.90;11.35;;;18.10;99.90;;;;;;4123813;28;20030;-62
2021/09/26 06:38:07;;;;;;;13.48;9.65;;;18.10;99.90;;;;;;4125829;28;20089;-64
2021/09/26 06:40:09;;;;;;;19.10;10.88;;;18.00;99.90;;;;;;4124674;28;20086;-62
2021/09/26 06:42:10;;;;;;;14.02;10.05;;;18.20;99.90;;;;;;4125447;28;20105;-61
2021/09/26 06:44:13;;;;;;;14.35;10.00;;;18.20;99.90;;;;;;4124425;28;20360;-62
2021/09/26 06:46:14;;;;;;;17.33;10.90;;;18.30;99.90;;;;;;4124562;28;20108;-60
2021/09/26 06:48:16;;;;;;;23.75;11.05;;;18.20;99.90;;;;;;4125487;28;20034;-61
2021/09/26 06:50:17;;;;;;;19.42;11.10;;;18.30;99.90;;;;;;4124992;28;20554;-61
2021/09/26 06:52:18;;;;;;;16.10;10.45;;;18.20;99.90;;;;;;4125505;28;20605;-61
2021/09/26 06:54:20;;;;;;;17.35;10.80;;;18.10;99.90;;;;;;4123795;28;20034;-60
2021/09/26 06:56:21;;;;;;;19.90;10.25;;;17.90;99.90;;;;;;4125214;28;20524;-59
2021/09/26 06:58:24;;;;;;;15.48;10.88;;;18.00;99.90;;;;;;4124362;28;20039;-61
2021/09/26 07:00:25;;;;;;;14.98;9.93;;;18.10;99.90;;;;;;4125938;28;20019;-60
2021/09/26 07:02:27;;;;;;;17.25;10.38;;;18.20;99.90;;;;;;4124380;28;20112;-61
2021/09/26 07:04:28;;;;;;;13.90;9.60;;;18.30;99.90;;;;;;4125389;28;20038;-61
2021/09/26 07:06:29;;;;;;;12.80;9.48;;;18.40;99.90;;;;;;4123729;28;20117;-61
2021/09/26 07:08:31;;;;;;;16.30;9.45;;;18.50;99.90;;;;;;4125092;28;20104;-63
2021/09/26 07:10:32;;;;;;;12.05;8.95;;;18.90;99.90;;;;;;4123773;28;20100;-60
2021/09/26 07:12:33;;;;;;;16.02;9.98;;;19.10;99.90;;;;;;4124920;28;20081;-60
2021/09/26 07:14:34;;;;;;;15.13;10.18;;;18.90;99.90;;;;;;4124522;28;20069;-62
2021/09/26 07:16:35;;;;;;;13.18;9.27;;;18.70;99.90;;;;;;4124841;28;20093;-63
2021/09/26 07:18:36;;;;;;;17.50;10.68;;;18.60;99.90;;;;;;4124789;28;20516;-61
2021/09/26 07:20:38;;;;;;;14.95;9.35;;;18.80;99.90;;;;;;4123357;28;20564;-62
2021/09/26 07:22:40;;;;;;;18.52;10.52;;;18.60;99.90;;;;;;4125304;28;20475;-61
2021/09/26 07:24:41;;;;;;;15.35;9.73;;;18.50;99.90;;;;;;4124087;28;20045;-60
2021/09/26 07:26:43;;;;;;;12.90;9.20;;;18.40;99.90;;;;;;4125096;28;20471;-60
2021/09/26 07:28:44;;;;;;;15.10;8.55;;;18.20;99.90;;;;;;4123642;28;20085;-61
2021/09/26 07:30:45;;;;;;;9.88;7.07;;;18.40;99.90;;;;;;4124808;28;20055;-64
2021/09/26 07:32:46;;;;;;;14.05;8.45;;;18.30;99.90;;;;;;4123787;28;20034;-60
2021/09/26 07:34:47;;;;;;;10.65;7.65;;;18.30;99.90;;;;;;4124878;28;20430;-62
2021/09/26 07:36:48;;;;;;;13.90;7.80;;;18.40;99.90;;;;;;4123388;28;20091;-62
2021/09/26 07:38:49;;;;;;;12.82;8.27;;;18.50;99.90;;;;;;4124636;28;20093;-65
2021/09/26 07:40:51;;;;;;;9.68;6.85;;;18.40;99.90;;;;;;4123544;28;20063;-61
2021/09/26 07:42:52;;;;;;;11.85;6.80;;;18.30;99.90;;;;;;4124416;28;20046;-61
2021/09/26 07:44:53;;;;;;;9.10;6.53;;;18.30;99.90;;;;;;4122921;28;20842;-68
2021/09/26 07:46:55;;;;;;;14.32;7.30;;;18.50;99.90;;;;;;4124406;28;20034;-60
2021/09/26 07:48:57;;;;;;;8.70;6.53;;;18.60;99.90;;;;;;4123106;28;20810;-62
2021/09/26 07:50:58;;;;;;;8.20;6.25;;;18.70;99.90;;;;;;4124101;28;20034;-61
2021/09/26 07:52:59;;;;;;;9.13;6.10;;;18.70;99.90;;;;;;4124118;28;20030;-61
2021/09/26 07:55:00;;;;;;;9.20;6.53;;;18.70;99.90;;;;;;4123342;28;20038;-61
2021/09/26 07:57:02;;;;;;;9.52;5.57;;;18.60;99.90;;;;;;4123885;28;20038;-60
2021/09/26 07:59:03;;;;;;;5.97;5.38;;;18.60;99.90;;;;;;4122971;28;20054;-70
2021/09/26 08:01:04;;;;;;;8.43;5.28;;;18.70;99.90;;;;;;4122290;28;20557;-62
2021/09/26 08:03:05;;;;;;;7.03;5.55;;;18.80;99.90;;;;;;4106968;28;20051;-73
2021/09/26 08:05:08;;;;;;;7.05;5.38;;;18.80;99.90;;;;;;4108487;28;20043;-65
2021/09/26 08:07:09;;;;;;;7.85;5.60;;;18.80;99.90;;;;;;4106866;28;20058;-63
2021/09/26 08:09:10;;;;;;;9.27;5.40;;;18.80;99.90;;;;;;4108297;28;20031;-60
2021/09/26 08:11:11;;;;;;;9.15;6.00;;;19.00;99.90;;;;;;4106835;28;20051;-61
2021/09/26 08:13:13;;;;;;;7.03;4.90;;;19.20;99.90;;;;;;4108146;28;20051;-62
2021/09/26 08:15:18;;;;;;;7.13;4.85;;;19.20;99.90;;;;;;4107107;28;20098;-62
2021/09/26 08:17:19;;;;;;;6.68;4.70;;;19.10;99.90;;;;;;4107593;28;20063;-64
2021/09/26 08:19:22;;;;;;;6.85;3.83;;;19.10;99.90;;;;;;4107617;28;20459;-61
2021/09/26 08:21:23;;;;;;;8.75;4.63;;;19.10;99.90;;;;;;4106886;28;20110;-60
2021/09/26 08:23:24;;;;;;;7.28;4.60;;;19.20;99.90;;;;;;4107603;28;20031;-62
2021/09/26 08:25:25;;;;;;;7.68;5.50;;;19.10;99.90;;;;;;4107762;28;20102;-62
2021/09/26 08:27:28;;;;;;;7.88;5.28;;;19.20;99.90;;;;;;4108181;28;20031;-61
2021/09/26 08:29:29;;;;;;;6.95;5.75;;;19.40;99.90;;;;;;4106886;28;20035;-60
2021/09/26 08:31:31;;;;;;;7.70;5.78;;;19.40;99.90;;;;;;4108672;28;20082;-60
2021/09/26 08:33:32;;;;;;;10.27;5.85;;;19.30;99.90;;;;;;4106782;28;20034;-61
2021/09/26 08:35:33;;;;;;;9.85;6.10;;;19.30;99.90;;;;;;4111413;28;20081;-62
2021/09/26 08:37:35;;;;;;;7.97;5.57;;;19.20;99.90;;;;;;4122998;28;20124;-60
2021/09/26 08:39:36;;;;;;;8.45;5.70;;;19.30;99.90;;;;;;4124307;28;20471;-63
2021/09/26 08:41:38;;;;;;;8.10;5.60;;;19.40;99.90;;;;;;4122821;28;20069;-65
2021/09/26 08:43:39;;;;;;;8.55;5.03;;;19.50;99.90;;;;;;4123797;28;20030;-63
2021/09/26 08:45:40;;;;;;;9.07;5.82;;;19.50;99.90;;;;;;4123014;28;20038;-60
2021/09/26 08:47:43;;;;;;;9.38;5.25;;;19.50;99.90;;;;;;4123727;28;20541;-61
2021/09/26 08:49:45;;;;;;;9.20;5.32;;;19.40;99.90;;;;;;4103157;28;20471;-62
2021/09/26 08:51:48;;;;;;;9.63;6.03;;;19.40;99.90;;;;;;4117539;28;20454;-62
2021/09/26 08:53:50;;;;;;;7.15;5.82;;;19.40;99.90;;;;;;4122264;28;20031;-60
2021/09/26 08:55:52;;;;;;;7.85;5.50;;;19.50;99.90;;;;;;4121150;28;20506;-64
2021/09/26 08:57:54;;;;;;;11.07;6.07;;;19.50;99.90;;;;;;4121995;28;20126;-61
2021/09/26 08:59:55;;;;;;;8.65;5.63;;;19.60;99.90;;;;;;4111629;28;20047;-61
2021/09/26 09:01:56;;;;;;;9.20;5.60;;;19.70;99.90;;;;;;4111278;28;20690;-59
2021/09/26 09:03:57;;;;;;;10.38;5.15;;;19.90;99.90;;;;;;4109042;28;20121;-61
2021/09/26 09:05:58;;;;;;;5.90;4.47;;;19.90;99.90;;;;;;4110868;28;20038;-63
2021/09/26 09:08:15;;;;;;;7.10;4.80;;;20.10;99.90;;;;;;4109941;28;20081;-62
2021/09/26 09:10:16;;;;;;;7.50;4.47;;;20.10;99.90;;;;;;4110393;28;20047;-66
2021/09/26 09:12:23;;;;;;;7.53;4.50;;;20.40;99.90;;;;;;4109455;28;20125;-65
2021/09/26 09:14:25;;;;;;;6.13;4.90;;;20.40;99.90;;;;;;4110104;28;20066;-63
2021/09/26 09:16:33;;;;;;;11.18;5.35;;;20.30;99.90;;;;;;4109265;28;20514;-65
2021/09/26 09:18:50;;;;;;;7.93;4.93;;;20.20;99.90;;;;;;4110428;28;20034;-61
2021/09/26 09:20:52;;;;;;;6.32;4.68;;;20.20;99.90;;;;;;4109167;28;20504;-61
2021/09/26 09:23:05;;;;;;;8.27;4.57;;;20.20;99.90;;;;;;4110327;28;20085;-62
2021/09/26 09:25:07;;;;;;;6.80;4.90;;;20.20;99.90;;;;;;4108006;28;20089;-61
2021/09/26 09:27:09;;;;;;;6.35;4.70;;;20.20;99.90;;;;;;4119288;28;20034;-60
2021/09/26 09:29:10;;;;;;;8.02;4.50;;;20.30;99.90;;;;;;4123811;28;20042;-62
2021/09/26 09:31:11;;;;;;;6.10;4.78;;;20.40;99.90;;;;;;4126562;28;20034;-61
2021/09/26 09:33:13;;;;;;;23.73;15.95;;;20.50;99.90;;;;;;4125202;28;20085;-63
2021/09/26 09:35:21;;;;;;;6.35;4.78;;;20.50;99.90;;;;;;4105182;28;20042;-67
2021/09/26 09:37:27;;;;;;;5.68;4.75;;;20.50;99.90;;;;;;4124750;28;20049;-64
2021/09/26 09:39:28;;;;;;;5.85;4.40;;;20.60;99.90;;;;;;4112511;28;20072;-64
2021/09/26 09:41:47;;;;;;;6.72;4.47;;;20.60;99.90;;;;;;4124417;28;20494;-63
2021/09/26 09:43:49;;;;;;;9.73;5.15;;;20.70;99.90;;;;;;4123886;28;20553;-62
2021/09/26 09:45:56;;;;;;;8.43;4.05;;;20.70;99.90;;;;;;4124001;28;20089;-69
2021/09/26 09:48:11;;;;;;;6.20;4.22;;;20.80;99.90;;;;;;4123733;28;20097;-63
2021/09/26 09:50:13;;;;;;;6.68;3.30;;;20.80;99.90;;;;;;4124566;28;20527;-62
2021/09/26 09:52:14;;;;;;;4.65;3.72;;;20.80;99.90;;;;;;4124110;28;20038;-66
2021/09/26 09:54:15;;;;;;;5.43;3.50;;;20.80;99.90;;;;;;4124300;28;20046;-61
2021/09/26 09:56:20;;;;;;;3.72;3.22;;;20.80;99.90;;;;;;4122082;28;20046;-69
2021/09/26 09:58:21;;;;;;;8.90;4.05;;;20.90;99.90;;;;;;4124355;28;20096;-62
2021/09/26 10:00:22;;;;;;;5.68;3.83;;;20.90;99.90;;;;;;4123093;28;20038;-62
2021/09/26 10:02:34;;;;;;;5.82;3.53;;;21.00;99.90;;;;;;4124186;28;20471;-67
2021/09/26 10:04:46;;;;;;;6.13;3.42;;;21.10;99.90;;;;;;4123002;28;20101;-62
2021/09/26 10:06:49;;;;;;;6.78;3.40;;;21.10;99.90;;;;;;4124312;28;20900;-72
2021/09/26 10:08:51;;;;;;;5.93;4.13;;;21.20;99.90;;;;;;4123275;28;20058;-63
2021/09/26 10:11:04;;;;;;;7.07;4.05;;;21.20;99.90;;;;;;4123773;28;20934;-61
2021/09/26 10:13:13;;;;;;;5.75;3.40;;;21.30;99.90;;;;;;4123099;28;20093;-61
2021/09/26 10:15:14;;;;;;;5.78;3.33;;;21.40;99.90;;;;;;4124476;28;20132;-63
2021/09/26 10:17:15;;;;;;;4.93;3.92;;;21.40;99.90;;;;;;4123571;28;20088;-64
2021/09/26 10:19:21;;;;;;;7.20;3.83;;;21.50;99.90;;;;;;4125057;28;20054;-62
2021/09/26 10:21:23;;;;;;;6.88;3.00;;;21.40;99.90;;;;;;4123710;28;20054;-65
2021/09/26 10:23:24;;;;;;;6.45;3.60;;;21.50;99.80;;;;;;4124167;28;20038;-67
2021/09/26 10:25:25;;;;;;;5.47;3.65;;;21.50;99.70;;;;;;4123407;28;20034;-61
2021/09/26 10:27:30;;;;;;;3.40;2.80;;;21.60;99.40;;;;;;4124894;28;20039;-62
2021/09/26 10:29:32;;;;;;;4.18;2.63;;;21.70;99.10;;;;;;4124672;28;20011;-67